Time;durP1;ratioP1;P1;durP2;ratioP2;P2;SDS_P1;SDS_P2;PMS_P1;PMS_P2;Temp;Humidity;BMP_temperature;BMP_pressure;BME280_temperature;BME280_humidity;BME280_pressure;Samples;Min_cycle;Max_cycle;Signal;HPM_P1;HPM_P2
2021/12/27 00:00:48;;;;;;;45.50;26.87;;;;;;;2.48;100.00;100157.41;5030887;28;20033;-62
2021/12/27 00:03:13;;;;;;;42.43;26.53;;;;;;;2.50;100.00;100160.72;5031082;28;20061;-62
2021/12/27 00:05:39;;;;;;;44.70;26.53;;;;;;;2.50;100.00;100158.09;5030671;28;20112;-62
2021/12/27 00:08:04;;;;;;;42.97;26.07;;;;;;;2.51;100.00;100157.13;5031429;28;20483;-61
2021/12/27 00:10:30;;;;;;;43.70;27.10;;;;;;;2.52;100.00;100158.78;5031298;28;20118;-61
2021/12/27 00:12:57;;;;;;;43.73;26.27;;;;;;;2.50;100.00;100145.00;5032243;28;20455;-62
2021/12/27 00:15:23;;;;;;;43.80;26.07;;;;;;;2.54;100.00;100156.88;5032293;28;20338;-62
2021/12/27 00:17:48;;;;;;;40.10;25.63;;;;;;;2.57;100.00;100155.81;5031444;28;20030;-61
2021/12/27 00:20:16;;;;;;;42.40;25.87;;;;;;;2.58;100.00;100159.25;5030359;28;20040;-61
2021/12/27 00:22:45;;;;;;;40.33;25.47;;;;;;;2.57;100.00;100150.56;5032734;28;20486;-62
2021/12/27 00:25:11;;;;;;;40.23;24.43;;;;;;;2.59;100.00;100147.81;5031185;28;20017;-62
2021/12/27 00:27:36;;;;;;;42.20;26.07;;;;;;;2.60;100.00;100144.22;5031040;28;20035;-62
2021/12/27 00:30:03;;;;;;;41.97;26.20;;;;;;;2.60;100.00;100154.69;5032703;28;20034;-62
2021/12/27 00:32:29;;;;;;;41.67;26.20;;;;;;;2.61;100.00;100145.91;5030955;28;20025;-62
2021/12/27 00:34:54;;;;;;;41.90;26.43;;;;;;;2.62;100.00;100152.81;5030675;28;20091;-61
2021/12/27 00:37:19;;;;;;;40.50;25.83;;;;;;;2.62;100.00;100140.53;5032634;28;20036;-62
2021/12/27 00:39:44;;;;;;;43.93;26.93;;;;;;;2.62;100.00;100131.88;5036942;28;20029;-61
2021/12/27 00:42:10;;;;;;;41.70;26.93;;;;;;;2.63;100.00;100128.28;5031456;28;20529;-61
2021/12/27 00:44:36;;;;;;;42.50;25.80;;;;;;;2.65;100.00;100128.97;5031914;28;20068;-61
2021/12/27 00:47:01;;;;;;;41.30;25.87;;;;;;;2.67;100.00;100119.22;5030629;28;20088;-62
2021/12/27 00:49:27;;;;;;;41.60;26.57;;;;;;;2.68;100.00;100115.66;5030901;28;20453;-61
2021/12/27 00:51:53;;;;;;;42.07;26.23;;;;;;;2.69;100.00;100106.81;5028162;28;20498;-61
2021/12/27 00:54:19;;;;;;;42.63;26.47;;;;;;;2.70;100.00;100103.25;5029547;28;20037;-60
2021/12/27 00:56:44;;;;;;;41.10;26.37;;;;;;;2.70;100.00;100103.25;5029035;28;20028;-61
2021/12/27 00:59:10;;;;;;;43.77;26.17;;;;;;;2.70;100.00;100098.00;5031545;28;20055;-62
2021/12/27 01:01:35;;;;;;;43.93;25.90;;;;;;;2.72;100.00;100106.59;5027120;28;20116;-62
2021/12/27 01:04:01;;;;;;;38.33;24.97;;;;;;;2.71;100.00;100094.44;5031451;28;20065;-61
2021/12/27 01:06:27;;;;;;;41.60;26.30;;;;;;;2.74;100.00;100102.03;5029747;28;20104;-62
2021/12/27 01:08:52;;;;;;;43.17;26.67;;;;;;;2.75;100.00;100101.06;5032672;28;20049;-62
2021/12/27 01:13:59;;;;;;;40.13;25.47;;;;;;;2.77;100.00;100099.16;5032184;28;20042;-61
2021/12/27 01:16:24;;;;;;;41.77;25.90;;;;;;;2.78;100.00;100094.75;5029333;28;20036;-61
2021/12/27 01:18:50;;;;;;;40.73;25.43;;;;;;;2.77;100.00;100096.53;5033124;28;20025;-62
2021/12/27 01:21:18;;;;;;;39.40;25.00;;;;;;;2.79;100.00;100096.41;5030332;28;20579;-62
2021/12/27 01:23:44;;;;;;;40.50;25.70;;;;;;;2.78;100.00;100098.22;5029166;28;20095;-62
2021/12/27 01:26:11;;;;;;;42.37;26.00;;;;;;;2.80;100.00;100098.91;5030604;28;20537;-62
2021/12/27 01:28:37;;;;;;;40.43;25.90;;;;;;;2.81;100.00;100095.31;5032378;28;20364;-62
2021/12/27 01:31:02;;;;;;;42.23;26.40;;;;;;;2.81;100.00;100100.56;5031459;28;20471;-62
2021/12/27 01:33:28;;;;;;;42.30;26.57;;;;;;;2.85;100.00;100097.69;5031696;28;20057;-62
2021/12/27 01:35:55;;;;;;;41.40;25.63;;;;;;;2.86;100.00;100096.72;5030982;28;20041;-61
2021/12/27 01:38:20;;;;;;;40.47;25.60;;;;;;;2.88;100.00;100100.03;5029215;28;20061;-62
2021/12/27 01:40:48;;;;;;;40.45;25.77;;;;;;;2.85;100.00;100089.84;5031852;28;20478;-61
2021/12/27 01:43:20;;;;;;;40.30;25.67;;;;;;;2.87;100.00;100091.38;5030738;28;20038;-62
2021/12/27 01:45:50;;;;;;;41.00;25.88;;;;;;;2.85;100.00;100079.38;5029373;28;20095;-62
2021/12/27 01:48:20;;;;;;;39.70;25.03;;;;;;;2.90;100.00;100082.41;5031836;28;20033;-61
2021/12/27 01:50:46;;;;;;;41.33;25.53;;;;;;;2.89;100.00;100086.81;5030217;28;20040;-62
2021/12/27 01:53:13;;;;;;;41.50;26.07;;;;;;;2.92;100.00;100085.75;5031852;28;20038;-62
2021/12/27 01:55:39;;;;;;;42.50;25.57;;;;;;;2.93;100.00;100082.16;5031167;28;20029;-62
2021/12/27 01:58:04;;;;;;;40.47;25.57;;;;;;;2.93;100.00;100079.53;5032209;28;20417;-62
2021/12/27 02:00:30;;;;;;;42.10;25.90;;;;;;;2.96;100.00;100076.63;5031429;28;20025;-62
2021/12/27 02:02:55;;;;;;;43.27;27.00;;;;;;;2.96;100.00;100077.47;5030039;28;20037;-62
2021/12/27 02:05:21;;;;;;;41.73;26.53;;;;;;;2.97;100.00;100078.31;5031306;28;20055;-61
2021/12/27 02:07:46;;;;;;;39.43;25.97;;;;;;;2.98;100.00;100074.75;5031867;28;20458;-62
2021/12/27 02:10:13;;;;;;;41.50;26.03;;;;;;;3.00;100.00;100072.00;5031655;28;20395;-62
2021/12/27 02:12:39;;;;;;;43.63;25.97;;;;;;;3.01;100.00;100069.22;5030138;28;20032;-61
2021/12/27 02:15:09;;;;;;;43.90;26.60;;;;;;;3.02;100.00;100065.66;5029978;28;20033;-62
2021/12/27 02:17:37;;;;;;;45.03;26.53;;;;;;;3.03;100.00;100061.25;5031144;28;20429;-61
2021/12/27 02:20:05;;;;;;;42.45;26.10;;;;;;;3.00;100.00;100067.56;5031454;28;20048;-62
2021/12/27 02:22:35;;;;;;;43.80;25.93;;;;;;;3.02;100.00;100065.66;5031494;28;20060;-61
2021/12/27 02:25:03;;;;;;;41.67;26.27;;;;;;;3.01;100.00;100065.78;5030700;28;20040;-61
2021/12/27 02:27:28;;;;;;;43.30;25.83;;;;;;;3.06;100.00;100076.72;5031855;28;20025;-62
2021/12/27 02:29:54;;;;;;;40.00;25.13;;;;;;;3.06;100.00;100072.28;5031537;28;20048;-61
2021/12/27 02:32:19;;;;;;;41.67;25.67;;;;;;;3.07;100.00;100068.69;5030318;28;20037;-61
2021/12/27 02:34:44;;;;;;;43.80;26.55;;;;;;;3.06;100.00;100061.81;5031030;28;20405;-62
2021/12/27 02:37:09;;;;;;;41.38;25.00;;;;;;;3.08;100.00;100066.91;5031630;28;20041;-62
2021/12/27 02:39:35;;;;;;;41.83;25.27;;;;;;;3.09;100.00;100077.28;5031461;28;20037;-62
2021/12/27 02:42:00;;;;;;;42.67;26.10;;;;;;;3.09;100.00;100072.03;5031039;28;20459;-62
2021/12/27 02:44:25;;;;;;;42.30;25.83;;;;;;;3.11;100.00;100079.75;5020173;28;20026;-62
2021/12/27 02:46:50;;;;;;;41.67;25.83;;;;;;;3.12;100.00;100070.94;5030619;28;20041;-62
2021/12/27 02:49:16;;;;;;;42.80;25.73;;;;;;;3.13;100.00;100072.59;5031630;28;20030;-62
2021/12/27 02:51:41;;;;;;;45.08;26.58;;;;;;;3.14;100.00;100068.16;5030967;28;20423;-62
2021/12/27 02:54:06;;;;;;;40.47;25.13;;;;;;;3.14;100.00;100060.31;5031216;28;20036;-62
2021/12/27 02:56:33;;;;;;;45.37;26.13;;;;;;;3.14;100.00;100058.53;5027719;28;20029;-61
2021/12/27 02:58:58;;;;;;;41.72;25.65;;;;;;;3.15;100.00;100048.91;5028771;28;20056;-62
2021/12/27 03:01:24;;;;;;;42.75;25.48;;;;;;;3.16;100.00;100053.16;5029442;28;20395;-61
2021/12/27 03:03:51;;;;;;;44.17;26.45;;;;;;;3.16;100.00;100053.97;5026696;28;20064;-62
2021/12/27 03:06:16;;;;;;;44.75;26.95;;;;;;;3.18;100.00;100051.22;5028796;28;20505;-62
2021/12/27 03:08:44;;;;;;;39.47;25.55;;;;;;;3.19;100.00;100061.59;5029494;28;20042;-62
2021/12/27 03:11:11;;;;;;;42.20;25.52;;;;;;;3.19;100.00;100047.66;5030239;28;20087;-62
2021/12/27 03:13:39;;;;;;;45.15;27.00;;;;;;;3.19;100.00;100045.03;5030213;28;20474;-62
2021/12/27 03:16:11;;;;;;;42.95;26.25;;;;;;;3.20;100.00;100042.28;5031923;28;20037;-61
2021/12/27 03:18:39;;;;;;;42.42;25.25;;;;;;;3.21;100.00;100037.88;5033266;28;20479;-62
2021/12/27 03:21:06;;;;;;;43.67;25.88;;;;;;;3.22;100.00;100034.28;5035416;28;20040;-61
2021/12/27 03:23:31;;;;;;;43.58;26.27;;;;;;;3.24;100.00;100037.59;5033546;28;20087;-61
2021/12/27 03:25:57;;;;;;;43.13;26.17;;;;;;;3.25;100.00;100034.00;5032954;28;20025;-62
2021/12/27 03:28:22;;;;;;;39.92;25.55;;;;;;;3.25;100.00;100041.88;5032110;28;20037;-62
2021/12/27 03:30:48;;;;;;;42.42;25.27;;;;;;;3.26;100.00;100035.66;5033407;28;20113;-62
2021/12/27 03:33:15;;;;;;;41.38;25.85;;;;;;;3.27;100.00;100032.09;5033898;28;20574;-62
2021/12/27 03:35:51;;;;;;;43.27;25.77;;;;;;;3.29;100.00;100035.41;5033477;28;20367;-62
2021/12/27 03:38:16;;;;;;;42.53;24.77;;;;;;;3.31;100.00;100037.91;5034200;28;20041;-62
2021/12/27 03:40:41;;;;;;;42.35;25.77;;;;;;;3.30;100.00;100034.44;5033648;28;20037;-62
2021/12/27 03:43:07;;;;;;;41.22;25.65;;;;;;;3.32;100.00;100029.06;5034212;28;20025;-62
2021/12/27 03:45:36;;;;;;;43.28;25.33;;;;;;;3.32;100.00;100024.69;5032561;28;20041;-61
2021/12/27 03:48:02;;;;;;;44.57;25.90;;;;;;;3.34;100.00;100030.59;5033905;28;20029;-62
2021/12/27 03:50:28;;;;;;;41.85;25.83;;;;;;;3.36;100.00;100026.03;5033153;28;20025;-61
2021/12/27 03:52:54;;;;;;;42.30;25.63;;;;;;;3.36;100.00;100022.63;5033075;28;20500;-61
2021/12/27 03:55:20;;;;;;;41.50;25.15;;;;;;;3.39;100.00;100013.66;5031357;28;20029;-61
2021/12/27 03:57:53;;;;;;;39.22;24.63;;;;;;;3.39;100.00;100022.31;5033386;28;20037;-62
2021/12/27 04:02:46;;;;;;;38.15;24.05;;;;;;;3.41;100.00;100002.03;5032146;28;20799;-61
2021/12/27 04:05:11;;;;;;;44.20;25.23;;;;;;;3.42;100.00;100001.09;5032381;28;20033;-62
2021/12/27 04:07:38;;;;;;;40.08;24.92;;;;;;;3.42;100.00;100000.25;5032809;28;21620;-62
2021/12/27 04:10:08;;;;;;;40.70;24.40;;;;;;;3.44;100.00;100000.94;5033651;28;20045;-62
2021/12/27 04:12:34;;;;;;;40.40;24.95;;;;;;;3.45;100.00;99994.75;5029073;28;20040;-62
2021/12/27 04:15:00;;;;;;;41.05;24.85;;;;;;;3.45;100.00;99992.13;5030277;28;20037;-61
2021/12/27 04:17:26;;;;;;;39.22;24.58;;;;;;;3.46;100.00;99989.34;5032551;28;20029;-62
2021/12/27 04:19:51;;;;;;;40.67;24.88;;;;;;;3.47;100.00;99991.00;5034349;28;20029;-62
2021/12/27 04:22:16;;;;;;;42.53;25.50;;;;;;;3.48;100.00;99984.00;5033703;28;20029;-62
2021/12/27 04:24:42;;;;;;;40.50;24.90;;;;;;;3.48;100.00;99986.59;5032020;28;20467;-61
2021/12/27 04:27:07;;;;;;;41.17;24.95;;;;;;;3.48;100.00;99986.59;5031665;28;20156;-62
2021/12/27 04:29:32;;;;;;;41.92;25.15;;;;;;;3.49;100.00;99975.16;5033494;28;20033;-62
2021/12/27 04:31:57;;;;;;;39.55;24.48;;;;;;;3.51;100.00;99978.50;5029787;28;20374;-62
2021/12/27 04:34:22;;;;;;;42.25;25.05;;;;;;;3.51;100.00;99975.88;5033211;28;20075;-62
2021/12/27 04:36:48;;;;;;;38.80;23.95;;;;;;;3.51;100.00;99968.00;5032829;28;20469;-62
2021/12/27 04:39:13;;;;;;;43.10;24.08;;;;;;;3.52;100.00;99972.28;5030805;28;20029;-62
2021/12/27 04:41:38;;;;;;;43.42;25.38;;;;;;;3.54;100.00;99970.34;5032430;28;20030;-62
2021/12/27 04:44:04;;;;;;;40.63;23.73;;;;;;;3.54;100.00;99969.53;5033518;28;20045;-62
2021/12/27 04:46:29;;;;;;;41.35;25.00;;;;;;;3.55;100.00;99971.19;5032455;28;20029;-62
2021/12/27 04:48:55;;;;;;;41.28;25.35;;;;;;;3.55;100.00;99966.75;5028041;28;20029;-62
2021/12/27 04:51:21;;;;;;;41.70;24.38;;;;;;;3.56;100.00;99963.16;5031527;28;20044;-62
2021/12/27 04:53:48;;;;;;;42.00;24.48;;;;;;;3.57;100.00;99970.06;5032242;28;20036;-61
2021/12/27 04:56:14;;;;;;;39.97;24.40;;;;;;;3.57;100.00;99966.63;5030337;28;20029;-62
2021/12/27 04:58:39;;;;;;;40.35;24.50;;;;;;;3.60;100.00;99968.97;5031876;28;20080;-62
2021/12/27 05:01:06;;;;;;;40.30;24.13;;;;;;;3.60;100.00;99964.53;5032054;28;20055;-62
2021/12/27 05:03:32;;;;;;;40.85;24.60;;;;;;;3.62;100.00;99964.41;5024495;28;20760;-62
2021/12/27 05:05:57;;;;;;;39.03;24.45;;;;;;;3.63;100.00;99961.66;5026953;28;20033;-61
2021/12/27 05:08:22;;;;;;;42.05;23.98;;;;;;;3.65;100.00;99961.50;5031393;28;20053;-61
2021/12/27 05:10:48;;;;;;;39.17;24.48;;;;;;;3.66;100.00;99959.72;5030155;28;20651;-61
2021/12/27 05:13:13;;;;;;;41.88;24.70;;;;;;;3.67;100.00;99962.22;5027678;28;20033;-59
2021/12/27 05:15:39;;;;;;;39.97;23.98;;;;;;;3.68;100.00;99956.00;5023699;28;20447;-61
2021/12/27 05:18:04;;;;;;;42.28;24.15;;;;;;;3.68;100.00;99963.03;5032164;28;20029;-60
2021/12/27 05:20:29;;;;;;;40.10;24.00;;;;;;;3.68;100.00;99960.41;5032614;28;20036;-60
2021/12/27 05:22:55;;;;;;;41.05;23.83;;;;;;;3.70;100.00;99958.50;5031058;28;20714;-62
2021/12/27 05:25:20;;;;;;;40.08;24.70;;;;;;;3.69;100.00;99957.66;5026910;28;20865;-63
2021/12/27 05:27:46;;;;;;;39.85;23.70;;;;;;;3.71;100.00;99957.50;5025918;28;20556;-63
2021/12/27 05:30:12;;;;;;;40.17;24.42;;;;;;;3.72;100.00;99957.38;5025218;28;20026;-63
2021/12/27 05:32:40;;;;;;;42.78;24.60;;;;;;;3.74;100.00;99951.97;5027329;28;20025;-63
2021/12/27 05:35:06;;;;;;;39.90;24.48;;;;;;;3.74;100.00;99949.34;5028431;28;20037;-63
2021/12/27 05:37:32;;;;;;;41.10;24.20;;;;;;;3.74;100.00;99944.09;5023242;28;20029;-63
2021/12/27 05:40:04;;;;;;;40.38;24.90;;;;;;;3.79;100.00;99947.16;5024119;28;20467;-63
2021/12/27 05:42:29;;;;;;;41.00;24.40;;;;;;;3.78;100.00;99942.88;5026858;28;20120;-63
2021/12/27 05:44:54;;;;;;;43.03;25.08;;;;;;;3.80;100.00;99940.13;5038212;28;20116;-62
2021/12/27 05:47:20;;;;;;;42.17;24.90;;;;;;;3.82;100.00;99941.63;5024395;28;20044;-63
2021/12/27 05:49:45;;;;;;;43.60;25.35;;;;;;;3.82;100.00;99946.88;5023653;28;20490;-63
2021/12/27 05:52:10;;;;;;;42.67;25.15;;;;;;;3.83;100.00;99945.91;5025258;28;20037;-63
2021/12/27 05:54:35;;;;;;;41.72;25.10;;;;;;;3.83;100.00;99943.28;5025010;28;20175;-59
2021/12/27 05:57:01;;;;;;;40.38;24.67;;;;;;;3.84;100.00;99944.94;5022894;28;20438;-62
2021/12/27 05:59:26;;;;;;;41.95;25.75;;;;;;;3.87;100.00;99951.69;5024629;28;20034;-56
2021/12/27 06:01:51;;;;;;;45.05;26.23;;;;;;;3.90;100.00;99954.88;5021608;28;20033;-57
2021/12/27 06:04:17;;;;;;;39.60;24.75;;;;;;;3.92;100.00;99951.28;5024181;28;20029;-56
2021/12/27 06:06:42;;;;;;;45.13;26.13;;;;;;;3.92;100.00;99948.66;5024565;28;20045;-56
2021/12/27 06:09:07;;;;;;;42.30;25.38;;;;;;;3.94;100.00;99951.97;5021725;28;20556;-56
2021/12/27 06:11:33;;;;;;;42.70;25.33;;;;;;;3.93;100.00;99942.44;5021989;28;20445;-56
2021/12/27 06:13:58;;;;;;;42.30;25.75;;;;;;;3.93;100.00;99947.69;5021881;28;20112;-56
2021/12/27 06:16:24;;;;;;;40.88;24.85;;;;;;;3.94;100.00;99944.13;5023128;28;20037;-57
2021/12/27 06:18:49;;;;;;;39.83;24.55;;;;;;;3.96;100.00;99942.16;5021083;28;20033;-61
2021/12/27 06:21:15;;;;;;;40.47;24.58;;;;;;;3.96;100.00;99944.78;5022358;28;20040;-63
2021/12/27 06:23:42;;;;;;;42.25;24.45;;;;;;;3.97;100.00;99952.53;5022448;28;20405;-63
2021/12/27 06:26:07;;;;;;;39.53;24.13;;;;;;;3.99;100.00;99947.97;5021838;28;20517;-62
2021/12/27 06:28:34;;;;;;;41.08;24.80;;;;;;;4.00;100.00;99944.34;5023840;28;20053;-62
2021/12/27 06:30:59;;;;;;;42.28;25.15;;;;;;;4.01;100.00;99938.13;5024174;28;20395;-63
2021/12/27 06:33:25;;;;;;;41.35;23.88;;;;;;;4.02;100.00;99941.59;5020665;28;20044;-63
2021/12/27 06:35:50;;;;;;;41.83;23.92;;;;;;;4.05;100.00;99941.34;5021770;28;20117;-63
2021/12/27 06:38:15;;;;;;;41.45;24.42;;;;;;;4.06;100.00;99934.28;5028601;28;20044;-62
2021/12/27 06:40:41;;;;;;;41.90;23.83;;;;;;;4.07;100.00;99938.56;5027234;28;20117;-63
2021/12/27 06:43:06;;;;;;;42.67;24.48;;;;;;;4.09;100.00;99937.44;5022134;28;20235;-62
2021/12/27 06:45:31;;;;;;;40.75;23.88;;;;;;;4.11;100.00;99929.44;5021541;28;20399;-61
2021/12/27 06:47:57;;;;;;;41.28;23.27;;;;;;;4.11;100.00;99926.81;5020352;28;20395;-62
2021/12/27 06:50:23;;;;;;;39.10;23.17;;;;;;;4.14;100.00;99929.97;5019893;28;20030;-61
2021/12/27 06:52:49;;;;;;;40.33;24.00;;;;;;;4.13;100.00;99923.06;5022858;28;20029;-62
2021/12/27 06:55:14;;;;;;;42.50;23.92;;;;;;;4.15;100.00;99929.00;5022669;28;20037;-63
2021/12/27 06:57:40;;;;;;;42.78;23.60;;;;;;;4.15;100.00;99918.50;5022363;28;20037;-63
2021/12/27 07:00:09;;;;;;;44.00;23.63;;;;;;;4.15;100.00;99922.94;5023917;28;20021;-62
2021/12/27 07:02:34;;;;;;;41.63;23.98;;;;;;;4.17;100.00;99913.97;5025304;28;20053;-62
2021/12/27 07:05:00;;;;;;;43.05;24.30;;;;;;;4.18;100.00;99914.78;5023682;28;20072;-62
2021/12/27 07:07:25;;;;;;;44.15;23.85;;;;;;;4.20;100.00;99917.25;5020681;28;20092;-62
2021/12/27 07:09:51;;;;;;;42.85;23.60;;;;;;;4.20;100.00;99902.34;5024921;28;20099;-62
2021/12/27 07:12:17;;;;;;;42.05;23.95;;;;;;;4.22;100.00;99905.66;5025901;28;20501;-61
2021/12/27 07:14:42;;;;;;;42.40;23.73;;;;;;;4.22;100.00;99902.19;5028584;28;20033;-62
2021/12/27 07:17:08;;;;;;;43.45;23.50;;;;;;;4.23;100.00;99912.56;5028807;28;20075;-62
2021/12/27 07:19:34;;;;;;;40.10;22.88;;;;;;;4.22;100.00;99910.06;5029792;28;20033;-62
2021/12/27 07:21:59;;;;;;;42.28;23.00;;;;;;;4.22;100.00;99908.28;5030459;28;20033;-62
2021/12/27 07:24:24;;;;;;;40.05;22.75;;;;;;;4.23;100.00;99909.09;5028140;28;20087;-62
2021/12/27 07:26:52;;;;;;;38.80;22.55;;;;;;;4.24;100.00;99895.03;5027984;28;20238;-62
2021/12/27 07:29:18;;;;;;;38.33;22.35;;;;;;;4.24;100.00;99897.66;5025796;28;20033;-59
2021/12/27 07:31:43;;;;;;;40.20;22.98;;;;;;;4.24;100.00;99903.69;5022977;28;20041;-62
2021/12/27 07:34:09;;;;;;;40.55;22.80;;;;;;;4.23;100.00;99898.59;5020390;28;20426;-62
2021/12/27 07:36:34;;;;;;;41.97;22.25;;;;;;;4.24;100.00;99902.91;5024652;28;20030;-62
2021/12/27 07:39:00;;;;;;;40.05;22.65;;;;;;;4.23;100.00;99901.22;5025294;28;20026;-61
2021/12/27 07:41:26;;;;;;;37.58;22.45;;;;;;;4.23;100.00;99901.22;5025161;28;20475;-63
2021/12/27 07:43:51;;;;;;;41.33;22.55;;;;;;;4.25;100.00;99899.28;5023352;28;20029;-61
2021/12/27 07:46:16;;;;;;;37.92;22.40;;;;;;;4.25;100.00;99909.78;5024300;28;20034;-62
2021/12/27 07:48:42;;;;;;;39.22;22.10;;;;;;;4.25;100.00;99912.41;5024323;28;20044;-62
2021/12/27 07:51:07;;;;;;;36.08;22.02;;;;;;;4.26;100.00;99911.44;5022273;28;20172;-62
2021/12/27 07:53:32;;;;;;;37.03;22.30;;;;;;;4.27;100.00;99908.69;5025359;28;20038;-62
2021/12/27 07:55:57;;;;;;;37.45;22.73;;;;;;;4.28;100.00;99907.72;5023001;28;20486;-63
2021/12/27 07:58:23;;;;;;;38.83;23.05;;;;;;;4.30;100.00;99907.56;5023331;28;20040;-62
2021/12/27 08:00:50;;;;;;;39.28;21.70;;;;;;;4.29;100.00;99908.50;5021854;28;20064;-62
2021/12/27 08:03:18;;;;;;;35.28;21.08;;;;;;;4.31;100.00;99910.03;5028079;28;20488;-63
2021/12/27 08:05:43;;;;;;;34.28;21.13;;;;;;;4.32;100.00;99910.88;5026943;28;20497;-62
2021/12/27 08:08:09;;;;;;;36.97;20.85;;;;;;;4.32;100.00;99913.50;5028039;28;20037;-62
2021/12/27 08:10:34;;;;;;;33.55;19.60;;;;;;;4.31;100.00;99914.47;5027390;28;20037;-62
2021/12/27 08:13:01;;;;;;;33.72;20.42;;;;;;;4.31;100.00;99920.53;5026649;28;20475;-63
2021/12/27 08:15:26;;;;;;;36.15;20.80;;;;;;;4.30;100.00;99923.31;5026341;28;20026;-63
2021/12/27 08:17:51;;;;;;;34.85;20.30;;;;;;;4.27;100.00;99913.94;5022881;28;20082;-62
2021/12/27 08:20:17;;;;;;;35.25;20.02;;;;;;;4.28;100.00;99927.88;5026001;28;20037;-63
2021/12/27 08:22:42;;;;;;;33.70;20.13;;;;;;;4.29;100.00;99916.38;5026933;28;22059;-62
2021/12/27 08:25:07;;;;;;;33.45;20.10;;;;;;;4.29;100.00;99921.63;5025162;28;20474;-63
2021/12/27 08:27:35;;;;;;;33.80;20.27;;;;;;;4.29;100.00;99916.38;5033266;28;20029;-62
2021/12/27 08:30:04;;;;;;;34.75;20.30;;;;;;;4.30;100.00;99918.88;5028291;28;20048;-63
2021/12/27 08:32:30;;;;;;;37.30;21.73;;;;;;;4.33;100.00;99915.13;5032038;28;20379;-62
2021/12/27 08:34:55;;;;;;;34.50;20.95;;;;;;;4.33;100.00;99915.13;5027138;28;20029;-62
2021/12/27 08:37:20;;;;;;;31.55;20.77;;;;;;;4.30;100.00;99897.88;5028733;28;20026;-62
2021/12/27 08:39:46;;;;;;;35.45;22.15;;;;;;;4.30;100.00;99907.56;5031122;28;20509;-63
2021/12/27 08:42:12;;;;;;;36.22;21.33;;;;;;;4.29;100.00;99901.47;5026996;28;20033;-62
2021/12/27 08:44:38;;;;;;;34.00;21.33;;;;;;;4.25;100.00;99905.34;5025039;28;20044;-61
2021/12/27 08:47:04;;;;;;;34.30;20.05;;;;;;;4.24;100.00;99897.66;5020055;28;20026;-62
2021/12/27 08:49:30;;;;;;;33.30;20.23;;;;;;;4.24;100.00;99895.03;5018428;28;20735;-62
2021/12/27 08:51:55;;;;;;;32.58;20.02;;;;;;;4.22;100.00;99883.81;5022563;28;20026;-61
2021/12/27 08:54:20;;;;;;;32.50;20.25;;;;;;;4.20;100.00;99876.13;5024126;28;20057;-61
2021/12/27 08:56:46;;;;;;;31.30;20.08;;;;;;;4.20;100.00;99868.25;5030755;28;20029;-58
2021/12/27 08:59:11;;;;;;;31.90;19.83;;;;;;;4.21;100.00;99863.81;5030348;28;20026;-58
2021/12/27 09:01:36;;;;;;;35.20;19.38;;;;;;;4.23;100.00;99864.47;5028607;28;20052;-59
2021/12/27 09:04:04;;;;;;;34.72;19.48;;;;;;;4.25;100.00;99863.34;5029102;28;20036;-61
2021/12/27 09:06:29;;;;;;;31.85;18.58;;;;;;;4.27;100.00;99871.94;5023694;28;20104;-61
2021/12/27 09:08:55;;;;;;;31.13;18.92;;;;;;;4.29;100.00;99875.22;5022543;28;20052;-60
2021/12/27 09:11:20;;;;;;;30.70;18.83;;;;;;;4.32;100.00;99876.75;5028199;28;21470;-62
2021/12/27 09:13:45;;;;;;;28.45;18.60;;;;;;;4.35;100.00;99879.09;5029451;28;20025;-61
2021/12/27 09:16:13;;;;;;;32.38;18.70;;;;;;;4.38;100.00;99880.56;5030374;28;20115;-62
2021/12/27 09:18:38;;;;;;;26.85;17.23;;;;;;;4.37;100.00;99882.38;5031321;28;20029;-62
2021/12/27 09:21:04;;;;;;;26.17;16.63;;;;;;;4.37;100.00;99887.66;5030430;28;20029;-62
2021/12/27 09:23:30;;;;;;;27.27;17.48;;;;;;;4.36;100.00;99891.25;5031729;28;20266;-62
2021/12/27 09:25:55;;;;;;;25.88;16.80;;;;;;;4.37;100.00;99881.56;5028532;28;20030;-62
2021/12/27 09:28:21;;;;;;;28.35;17.40;;;;;;;4.37;100.00;99892.06;5032292;28;20057;-62
2021/12/27 09:30:47;;;;;;;28.13;17.38;;;;;;;4.37;100.00;99882.38;5024264;28;20072;-61
2021/12/27 09:33:12;;;;;;;26.63;17.48;;;;;;;4.41;100.00;99875.06;5024417;28;20223;-61
2021/12/27 09:35:38;;;;;;;27.77;17.30;;;;;;;4.41;100.00;99875.88;5025502;28;20398;-61
2021/12/27 09:38:04;;;;;;;26.65;17.48;;;;;;;4.42;100.00;99872.28;5022058;28;20084;-61
2021/12/27 09:40:30;;;;;;;24.92;16.80;;;;;;;4.42;100.00;99869.66;5023051;28;20193;-62
2021/12/27 09:42:55;;;;;;;28.00;16.70;;;;;;;4.43;100.00;99876.56;5027621;28;20085;-61
2021/12/27 09:45:22;;;;;;;25.85;16.75;;;;;;;4.42;100.00;99867.03;5021232;28;20398;-61
2021/12/27 09:47:51;;;;;;;25.35;16.80;;;;;;;4.41;100.00;99860.13;5024714;28;20025;-62
2021/12/27 09:50:46;;;;;;;23.60;16.00;;;;;;;4.48;100.00;99862.19;5030420;28;20079;-62
2021/12/27 09:53:12;;;;;;;25.17;16.60;;;;;;;4.48;100.00;99862.19;5028763;28;20037;-62
2021/12/27 09:55:37;;;;;;;25.45;16.95;;;;;;;4.51;100.00;99856.63;5028836;28;20037;-60
2021/12/27 09:58:02;;;;;;;24.85;16.27;;;;;;;4.54;100.00;99862.41;5029895;28;20026;-58
2021/12/27 10:00:28;;;;;;;26.85;15.85;;;;;;;4.57;100.00;99853.41;5025132;28;20502;-57
2021/12/27 10:02:56;;;;;;;25.88;15.32;;;;;;;4.60;100.00;99855.75;5029803;28;20037;-62
2021/12/27 10:05:24;;;;;;;26.15;15.32;;;;;;;4.68;100.00;99853.22;5025816;28;20034;-62
2021/12/27 10:07:49;;;;;;;25.42;16.33;;;;;;;4.74;100.00;99835.22;5023274;28;20032;-59
2021/12/27 10:10:15;;;;;;;25.10;15.48;;;;;;;4.80;100.00;99826.75;5023982;28;20037;-59
2021/12/27 10:12:41;;;;;;;23.17;14.77;;;;;;;4.80;100.00;99818.88;5029286;28;20039;-59
2021/12/27 10:15:10;;;;;;;24.10;14.43;;;;;;;4.78;100.00;99818.19;5022959;28;20037;-58
2021/12/27 10:17:37;;;;;;;24.95;14.32;;;;;;;4.78;100.00;99821.63;5020630;28;20047;-57
2021/12/27 10:20:18;;;;;;;22.73;14.73;;;;;;;4.76;100.00;99812.25;5025827;28;20034;-57
2021/12/27 10:22:49;;;;;;;24.80;14.30;;;;;;;4.77;100.00;99819.16;5023775;28;20479;-60
2021/12/27 10:25:16;;;;;;;23.30;15.15;;;;;;;4.81;100.00;99831.00;5021929;28;20128;-56
2021/12/27 10:27:41;;;;;;;24.42;15.20;;;;;;;4.84;100.00;99841.25;5022674;28;20500;-62
2021/12/27 10:30:12;;;;;;;24.75;15.23;;;;;;;4.82;100.00;99830.88;5030149;28;20033;-63
2021/12/27 10:32:38;;;;;;;25.63;14.85;;;;;;;4.90;100.00;99832.75;5030058;28;20071;-62
2021/12/27 10:35:06;;;;;;;23.63;15.55;;;;;;;4.95;100.00;99830.50;5028554;28;20108;-61
2021/12/27 10:37:32;;;;;;;23.52;15.10;;;;;;;4.99;100.00;99820.53;5028428;28;20029;-62
2021/12/27 10:40:03;;;;;;;22.42;14.90;;;;;;;5.02;100.00;99806.28;5028954;28;20186;-63
2021/12/27 10:42:33;;;;;;;22.60;14.75;;;;;;;5.08;100.00;99816.19;5030133;28;20086;-63
2021/12/27 10:45:01;;;;;;;22.33;14.57;;;;;;;5.13;100.00;99819.16;5028010;28;20041;-62
2021/12/27 10:47:42;;;;;;;21.45;14.15;;;;;;;5.19;100.00;99818.53;5029594;28;20127;-61
2021/12/27 10:50:13;;;;;;;23.23;14.35;;;;;;;5.25;100.00;99815.31;5020376;28;20372;-62
2021/12/27 10:52:44;;;;;;;20.05;13.43;;;;;;;5.29;100.00;99801.88;5021800;28;20037;-62
2021/12/27 10:55:10;;;;;;;21.15;13.55;;;;;;;5.37;100.00;99802.78;5017897;28;20037;-62
2021/12/27 10:57:36;;;;;;;23.08;13.75;;;;;;;5.38;100.00;99807.03;5021800;28;20102;-64
2021/12/27 11:00:24;;;;;;;21.70;13.77;;;;;;;5.44;100.00;99805.63;5021341;28;20506;-63
2021/12/27 11:02:51;;;;;;;19.67;13.13;;;;;;;5.46;100.00;99808.91;5021591;28;20029;-62
2021/12/27 11:05:25;;;;;;;19.80;13.30;;;;;;;5.47;100.00;99800.03;5024874;28;20065;-62
2021/12/27 11:07:53;;;;;;;21.48;13.38;;;;;;;5.54;100.00;99805.53;5028078;28;21853;-62
2021/12/27 11:10:20;;;;;;;20.42;13.05;;;;;;;5.60;100.00;99809.31;5023650;28;20026;-62
2021/12/27 11:12:46;;;;;;;21.48;13.40;;;;;;;5.64;100.00;99810.69;5018947;28;20144;-62
2021/12/27 11:15:12;;;;;;;21.70;13.10;;;;;;;5.68;100.00;99806.75;5027880;28;20451;-62